Time;durP1;ratioP1;P1;durP2;ratioP2;P2;SDS_P1;SDS_P2;PMS_P1;PMS_P2;Temp;Humidity;BMP_temperature;BMP_pressure;BME280_temperature;BME280_humidity;BME280_pressure;Samples;Min_cycle;Max_cycle;Signal;HPM_P1;HPM_P2
2022/04/17 00:01:06;;;;;;;4.58;2.37;;;;;;;2.25;50.43;102586.33;1676078;85;21110;-78
2022/04/17 00:03:51;;;;;;;3.17;2.35;;;;;;;2.22;50.51;102582.34;1666121;83;21033;-78
2022/04/17 00:06:35;;;;;;;3.80;2.55;;;;;;;2.22;50.60;102575.09;1654328;85;21041;-78
2022/04/17 00:09:20;;;;;;;6.28;2.30;;;;;;;2.16;50.69;102573.11;1654236;83;21068;-78
2022/04/17 00:12:07;;;;;;;2.37;1.82;;;;;;;2.12;50.66;102563.95;1655460;85;21052;-78
2022/04/17 00:14:52;;;;;;;4.08;2.30;;;;;;;2.04;50.72;102572.53;1654790;85;20984;-78
2022/04/17 00:17:44;;;;;;;5.28;2.50;;;;;;;2.01;50.76;102568.55;1671679;85;21562;-78
2022/04/17 00:20:28;;;;;;;4.95;2.52;;;;;;;1.94;50.83;102562.27;1666416;84;21084;-78
2022/04/17 00:23:13;;;;;;;6.40;2.98;;;;;;;1.90;50.95;102560.76;1663412;86;21127;-78
2022/04/17 00:25:58;;;;;;;5.42;2.90;;;;;;;1.86;50.93;102561.40;1639481;86;21094;-78
2022/04/17 00:28:43;;;;;;;3.67;2.42;;;;;;;1.83;51.06;102557.02;1637139;87;21017;-78
2022/04/17 00:31:28;;;;;;;3.62;2.37;;;;;;;1.80;51.13;102553.04;1637154;87;21048;-79
2022/04/17 00:34:12;;;;;;;3.50;2.40;;;;;;;1.81;51.19;102554.80;1662493;86;21072;-78
2022/04/17 00:37:00;;;;;;;3.42;2.35;;;;;;;1.78;51.24;102553.76;1642586;86;21151;-79
2022/04/17 00:39:45;;;;;;;4.45;2.47;;;;;;;1.80;51.27;102549.61;1640125;84;21576;-79
2022/04/17 00:42:29;;;;;;;4.37;2.17;;;;;;;1.78;51.32;102550.81;1640928;86;20981;-79
2022/04/17 00:45:14;;;;;;;3.75;2.40;;;;;;;1.76;51.45;102546.03;1655306;85;21046;-79
2022/04/17 00:48:00;;;;;;;4.58;2.70;;;;;;;1.76;51.53;102548.98;1637395;87;21045;-78
2022/04/17 00:50:46;;;;;;;4.67;2.50;;;;;;;1.72;51.64;102539.02;1647947;85;21144;-78
2022/04/17 00:53:31;;;;;;;3.35;2.52;;;;;;;1.73;51.64;102536.95;1637724;84;21123;-79
2022/04/17 00:56:16;;;;;;;4.28;2.50;;;;;;;1.71;51.73;102530.02;1636504;86;21013;-79
2022/04/17 00:59:09;;;;;;;4.63;2.63;;;;;;;1.69;51.80;102532.89;1637975;84;21143;-79
2022/04/17 01:01:54;;;;;;;2.87;2.40;;;;;;;1.69;51.80;102532.89;1636711;87;21876;-79
2022/04/17 01:04:41;;;;;;;4.10;2.62;;;;;;;1.70;51.83;102532.09;1636712;87;21081;-79
2022/04/17 01:07:26;;;;;;;6.90;3.62;;;;;;;1.68;51.87;102533.69;1637675;84;21387;-79
2022/04/17 01:10:11;;;;;;;6.50;3.05;;;;;;;1.63;51.87;102533.45;1638184;86;21045;-79
2022/04/17 01:12:59;;;;;;;5.62;2.90;;;;;;;1.59;51.90;102536.24;1620755;87;21060;-79
2022/04/17 01:15:45;;;;;;;6.72;3.20;;;;;;;1.56;51.93;102530.98;1622153;86;21026;-79
2022/04/17 01:18:30;;;;;;;5.22;2.80;;;;;;;1.54;52.03;102528.79;1648667;87;21001;-78
2022/04/17 01:21:18;;;;;;;4.40;2.98;;;;;;;1.54;52.15;102527.52;1644596;86;21037;-79
2022/04/17 01:27:07;;;;;;;4.80;2.47;;;;;;;1.52;52.33;102532.94;1651760;85;21120;-79
2022/04/17 01:29:53;;;;;;;5.17;2.92;;;;;;;1.48;52.24;102532.30;1645707;87;21065;-79
2022/04/17 01:32:37;;;;;;;4.08;2.85;;;;;;;1.45;52.31;102533.81;1662963;85;20997;-78
2022/04/17 01:35:22;;;;;;;3.65;2.52;;;;;;;1.43;52.44;102537.55;1666928;85;21065;-79
2022/04/17 01:38:07;;;;;;;4.30;2.67;;;;;;;1.42;52.39;102538.75;1666656;85;21538;-79
2022/04/17 01:40:52;;;;;;;4.75;2.15;;;;;;;1.39;52.43;102536.05;1657640;85;20972;-79
2022/04/17 01:43:36;;;;;;;4.40;2.47;;;;;;;1.33;52.52;102536.20;1645325;87;21360;-79
2022/04/17 01:46:22;;;;;;;6.17;3.50;;;;;;;1.31;52.58;102536.91;1666002;85;21073;-79
2022/04/17 01:49:06;;;;;;;6.07;2.57;;;;;;;1.32;52.80;102539.55;1662506;85;20999;-79
2022/04/17 01:51:53;;;;;;;3.62;2.72;;;;;;;1.30;52.86;102532.62;1631144;86;21008;-79
2022/04/17 01:54:38;;;;;;;4.33;2.40;;;;;;;1.28;52.86;102536.75;1645666;87;21084;-78
2022/04/17 01:57:23;;;;;;;3.27;2.30;;;;;;;1.25;52.83;102527.28;1646860;85;21005;-78
2022/04/17 02:00:10;;;;;;;3.75;2.55;;;;;;;1.19;52.87;102529.50;1641081;85;523181;-78
2022/04/17 02:02:54;;;;;;;6.87;2.52;;;;;;;1.16;52.96;102528.47;1646606;84;21008;-78
2022/04/17 02:05:39;;;;;;;3.70;2.30;;;;;;;1.15;53.07;102525.44;1666711;85;21049;-78
2022/04/17 02:08:24;;;;;;;4.20;2.47;;;;;;;1.08;53.02;102528.45;1673274;85;20985;-78
2022/04/17 02:11:08;;;;;;;3.00;2.30;;;;;;;0.99;53.05;102527.59;1661891;85;21048;-78
2022/04/17 02:13:54;;;;;;;3.33;2.22;;;;;;;0.89;53.10;102521.13;1657436;85;21570;-78
2022/04/17 02:16:39;;;;;;;6.03;3.02;;;;;;;0.85;53.32;102521.76;1672429;85;20977;-79
2022/04/17 02:19:23;;;;;;;5.65;2.37;;;;;;;0.90;53.42;102525.43;1658622;86;21089;-79
2022/04/17 02:22:08;;;;;;;6.92;3.08;;;;;;;0.92;53.55;102518.75;1674028;85;21123;-78
2022/04/17 02:24:52;;;;;;;4.78;2.87;;;;;;;0.88;53.44;102519.77;1631748;86;21139;-79
2022/04/17 02:27:37;;;;;;;6.12;2.80;;;;;;;0.85;53.43;102516.67;1654839;85;21092;-78
2022/04/17 02:30:22;;;;;;;3.83;2.33;;;;;;;0.81;53.43;102512.59;1640791;86;21080;-78
2022/04/17 02:33:06;;;;;;;5.83;2.95;;;;;;;0.76;53.50;102501.29;1653045;85;21028;-79
2022/04/17 02:35:54;;;;;;;8.25;3.17;;;;;;;0.71;53.63;102502.31;1645505;86;21042;-78
2022/04/17 02:38:38;;;;;;;5.20;3.30;;;;;;;0.68;53.74;102506.36;1680363;85;21399;-78
2022/04/17 02:41:23;;;;;;;4.55;2.60;;;;;;;0.61;53.66;102505.15;1656804;86;21101;-78
2022/04/17 02:44:07;;;;;;;6.72;3.08;;;;;;;0.52;53.75;102503.41;1653041;85;21033;-78
2022/04/17 02:49:55;;;;;;;7.22;2.87;;;;;;;0.51;53.98;102499.98;1668133;85;21052;-78
2022/04/17 02:52:40;;;;;;;6.50;3.00;;;;;;;0.51;53.91;102492.34;1631869;86;21513;-78
2022/04/17 02:55:26;;;;;;;5.78;3.22;;;;;;;0.49;53.89;102495.20;1664846;85;21036;-79
2022/04/17 02:58:10;;;;;;;6.28;3.00;;;;;;;0.42;53.92;102507.11;1630049;86;21176;-79
2022/04/17 03:07:01;;;;;;;5.37;3.22;;;;;;;0.40;54.18;102501.06;1678181;85;21341;-78
2022/04/17 03:09:46;;;;;;;6.40;2.90;;;;;;;0.38;54.38;102497.55;1646265;86;21060;-78
2022/04/17 03:12:30;;;;;;;5.70;2.95;;;;;;;0.35;54.31;102491.02;1680249;85;21088;-78
2022/04/17 03:15:15;;;;;;;6.03;3.05;;;;;;;0.28;54.19;102492.73;1658599;86;21133;-78
2022/04/17 03:18:00;;;;;;;4.90;2.72;;;;;;;0.23;54.37;102487.39;1669128;84;20976;-78
2022/04/17 03:20:46;;;;;;;7.00;3.40;;;;;;;0.22;54.42;102484.37;1651256;83;21083;-78
2022/04/17 03:23:31;;;;;;;3.75;2.92;;;;;;;0.18;54.49;102483.72;1647874;87;21071;-78
2022/04/17 03:26:15;;;;;;;5.67;3.12;;;;;;;0.17;54.64;102480.69;1650248;84;22211;-78
2022/04/17 03:28:59;;;;;;;5.90;3.02;;;;;;;0.14;54.68;102477.09;1649640;85;21033;-78
2022/04/17 03:31:44;;;;;;;5.25;2.72;;;;;;;0.10;54.69;102485.34;1659696;85;21030;-78
2022/04/17 03:34:29;;;;;;;4.65;2.22;;;;;;;0.06;54.66;102479.61;1662776;82;141916;-78
2022/04/17 03:37:14;;;;;;;3.40;2.37;;;;;;;-0.01;54.60;102489.86;1650890;85;21100;-78
2022/04/17 03:39:59;;;;;;;2.37;2.08;;;;;;;-0.09;54.64;102490.69;1649491;86;21597;-78
2022/04/17 03:42:45;;;;;;;5.58;2.72;;;;;;;-0.13;54.88;102486.22;1649236;86;21466;-78
2022/04/17 03:45:30;;;;;;;7.83;3.22;;;;;;;-0.10;54.99;102484.25;1677589;84;28199;-79
2022/04/17 03:48:16;;;;;;;6.15;2.75;;;;;;;-0.06;54.97;102481.97;1670698;84;21063;-79
2022/04/17 03:51:01;;;;;;;5.58;3.30;;;;;;;-0.04;55.00;102492.23;1661939;85;21604;-78
2022/04/17 03:53:45;;;;;;;4.50;2.60;;;;;;;0.00;55.07;102486.09;1660733;84;20984;-78
2022/04/17 03:56:30;;;;;;;5.40;3.30;;;;;;;0.02;54.98;102486.58;1659564;84;21455;-79
2022/04/17 03:59:15;;;;;;;3.55;2.87;;;;;;;0.00;55.04;102481.44;1677501;85;21023;-78
2022/04/17 04:01:59;;;;;;;5.08;2.80;;;;;;;-0.03;55.17;102473.64;1666129;84;21084;-78
2022/04/17 04:04:44;;;;;;;6.65;2.98;;;;;;;-0.04;55.26;102475.30;1655664;84;21040;-79
2022/04/17 04:07:29;;;;;;;5.92;3.20;;;;;;;-0.04;55.25;102475.30;1656556;85;21076;-79
2022/04/17 04:10:15;;;;;;;4.80;2.95;;;;;;;0.00;55.47;102473.81;1652926;84;21071;-79
2022/04/17 04:12:59;;;;;;;4.20;2.95;;;;;;;0.09;55.56;102475.97;1674549;84;24369;-78
2022/04/17 04:15:43;;;;;;;5.72;2.83;;;;;;;0.10;55.49;102472.63;1682893;84;21088;-78
2022/04/17 04:18:28;;;;;;;5.78;3.55;;;;;;;0.12;55.52;102472.32;1668401;84;21823;-78
2022/04/17 04:21:13;;;;;;;5.12;3.30;;;;;;;0.16;55.68;102473.85;1631797;86;21069;-78
2022/04/17 04:23:57;;;;;;;4.55;2.83;;;;;;;0.23;55.70;102469.59;1684716;84;21061;-79
2022/04/17 04:29:36;;;;;;;5.15;3.30;;;;;;;0.34;55.84;102456.19;1605311;87;21124;-80
2022/04/17 04:32:21;;;;;;;6.20;3.52;;;;;;;0.36;55.96;102457.55;1657207;84;21000;-79
2022/04/17 04:35:06;;;;;;;4.17;2.95;;;;;;;0.42;56.08;102457.88;1632356;86;21157;-79
2022/04/17 04:37:50;;;;;;;6.05;3.65;;;;;;;0.49;56.10;102463.39;1654231;84;21045;-80
2022/04/17 04:40:35;;;;;;;7.35;3.55;;;;;;;0.56;56.16;102462.90;1650921;86;21089;-80
2022/04/17 04:43:20;;;;;;;5.33;3.25;;;;;;;0.66;56.21;102457.91;1648694;85;21117;-80
2022/04/17 04:46:08;;;;;;;3.92;3.10;;;;;;;0.74;56.25;102459.59;1690822;83;21057;-79
2022/04/17 04:52:01;;;;;;;4.83;3.40;;;;;;;0.94;56.41;102458.59;1631749;87;21121;-79
2022/04/17 04:54:45;;;;;;;5.45;3.77;;;;;;;1.03;56.47;102457.31;1652881;86;21080;-79
2022/04/17 04:57:30;;;;;;;4.72;3.22;;;;;;;1.16;56.53;102459.27;1649752;85;20998;-78
2022/04/17 05:00:15;;;;;;;5.72;3.33;;;;;;;1.32;56.65;102452.90;1658790;84;21554;-78
2022/04/17 05:03:00;;;;;;;7.30;3.20;;;;;;;1.50;56.70;102452.95;1680477;84;21103;-78
2022/04/17 05:05:44;;;;;;;5.83;3.52;;;;;;;1.65;56.74;102446.44;1648240;85;21105;-78
2022/04/17 05:08:29;;;;;;;4.87;3.40;;;;;;;1.81;56.90;102445.12;1653141;84;21484;-78
2022/04/17 05:11:14;;;;;;;4.42;3.25;;;;;;;2.16;57.07;102441.69;1658082;85;21043;-79
2022/04/17 05:13:59;;;;;;;5.80;3.50;;;;;;;2.64;57.23;102440.52;1632380;86;21089;-78
2022/04/17 05:16:43;;;;;;;5.85;3.77;;;;;;;3.18;57.32;102437.36;1680483;83;21366;-78
2022/04/17 05:19:28;;;;;;;4.42;3.58;;;;;;;3.71;57.33;102441.68;1643688;86;21005;-78
2022/04/17 05:22:22;;;;;;;5.83;4.17;;;;;;;4.26;57.47;102434.09;1687789;84;20962;-78
2022/04/17 05:25:03;;;;;;;5.70;4.33;;;;;;;4.78;57.42;102428.36;1643895;86;21536;-79
2022/04/17 05:27:47;;;;;;;6.65;4.58;;;;;;;5.26;57.47;102429.20;1654371;84;21607;-80
2022/04/17 05:30:32;;;;;;;6.95;4.10;;;;;;;5.73;57.49;102432.48;1642076;85;21020;-79
2022/04/17 05:33:22;;;;;;;6.15;4.10;;;;;;;6.04;57.41;102425.81;1652573;85;21092;-79
2022/04/17 05:36:08;;;;;;;5.85;4.20;;;;;;;6.35;57.43;102433.61;1664101;85;21618;-79
2022/04/17 05:38:55;;;;;;;5.97;3.80;;;;;;;6.66;57.38;102439.67;1669960;85;21513;-79
2022/04/17 05:41:40;;;;;;;6.78;4.22;;;;;;;6.90;57.36;102434.79;1668030;84;21119;-79
2022/04/17 05:44:25;;;;;;;6.33;4.42;;;;;;;7.07;57.35;102426.26;1677645;84;21031;-79
2022/04/17 05:47:10;;;;;;;4.78;3.92;;;;;;;7.20;57.29;102427.47;1661841;84;21106;-79
2022/04/17 05:49:54;;;;;;;7.33;4.20;;;;;;;7.34;57.36;102420.08;1664360;84;21081;-79
2022/04/17 05:52:41;;;;;;;6.62;4.17;;;;;;;7.46;57.28;102422.56;1651951;84;21051;-80
2022/04/17 05:55:25;;;;;;;6.75;3.85;;;;;;;7.58;57.25;102423.29;1637754;85;21715;-80
2022/04/17 05:58:10;;;;;;;5.35;4.45;;;;;;;7.67;57.31;102420.95;1663505;84;21580;-80
2022/04/17 06:00:55;;;;;;;6.15;4.65;;;;;;;7.87;57.29;102419.70;1654354;84;22176;-79
2022/04/17 06:03:40;;;;;;;5.45;4.15;;;;;;;8.10;57.36;102424.52;1698515;83;21104;-79
2022/04/17 06:06:25;;;;;;;8.58;4.67;;;;;;;8.25;57.21;102415.86;1668275;83;21590;-79
2022/04/17 06:09:10;;;;;;;5.87;4.50;;;;;;;8.37;57.17;102421.28;1651101;85;20986;-79
2022/04/17 06:11:54;;;;;;;4.95;4.20;;;;;;;8.49;57.23;102420.69;1637051;86;21522;-79
2022/04/17 06:14:38;;;;;;;5.10;4.33;;;;;;;8.74;57.30;102417.78;1683917;84;21101;-79
2022/04/17 06:17:23;;;;;;;9.13;4.80;;;;;;;8.98;57.24;102417.80;1673285;84;21124;-79
2022/04/17 06:20:12;;;;;;;6.67;4.92;;;;;;;9.25;57.30;102423.48;1676168;85;21550;-79
2022/04/17 06:22:56;;;;;;;5.08;4.03;;;;;;;9.49;57.20;102416.57;1665211;84;21070;-79
2022/04/17 06:25:40;;;;;;;4.75;4.28;;;;;;;9.70;57.07;102411.77;1673173;84;21075;-79
2022/04/17 06:28:25;;;;;;;5.45;3.95;;;;;;;9.73;56.96;102405.78;1652244;86;21034;-79
2022/04/17 06:31:10;;;;;;;4.75;4.08;;;;;;;9.69;56.88;102406.58;1680778;84;21084;-79
2022/04/17 06:33:54;;;;;;;6.12;4.22;;;;;;;9.59;56.85;102401.26;1657887;86;21108;-79
2022/04/17 06:36:40;;;;;;;6.05;4.42;;;;;;;9.49;56.75;102399.78;1675997;83;158378;-79
2022/04/17 06:39:25;;;;;;;6.58;4.72;;;;;;;9.41;56.74;102412.98;1704523;83;21062;-79
2022/04/17 06:42:09;;;;;;;5.83;4.87;;;;;;;9.38;56.74;102408.64;1700098;84;21026;-79
2022/04/17 06:44:53;;;;;;;14.95;10.00;;;;;;;9.47;56.74;102401.47;1665153;85;20980;-79
2022/04/17 06:47:38;;;;;;;6.62;4.22;;;;;;;9.56;56.59;102405.50;1647979;84;21040;-79
2022/04/17 06:50:24;;;;;;;7.05;4.10;;;;;;;9.59;56.43;102407.72;1673525;84;21057;-79
2022/04/17 06:53:08;;;;;;;5.58;3.40;;;;;;;9.64;56.37;102406.50;1662605;85;21002;-80
2022/04/17 06:55:53;;;;;;;5.30;3.37;;;;;;;9.56;56.27;102408.09;1632931;83;21009;-79
2022/04/17 06:58:39;;;;;;;3.70;3.10;;;;;;;9.70;56.41;102409.61;1654514;85;21124;-79
2022/04/17 07:01:23;;;;;;;4.83;3.00;;;;;;;10.00;56.33;102405.31;1701934;82;21080;-79
2022/04/17 07:04:08;;;;;;;4.42;3.25;;;;;;;10.28;56.35;102397.16;1632447;85;21064;-79
2022/04/17 07:06:52;;;;;;;3.75;2.62;;;;;;;10.60;56.28;102389.36;1680888;84;21040;-79
2022/04/17 07:09:37;;;;;;;3.10;2.25;;;;;;;11.02;56.25;102385.93;1658703;86;21101;-79
2022/04/17 07:12:22;;;;;;;2.22;2.02;;;;;;;11.42;56.12;102391.08;1660799;84;21038;-79
2022/04/17 07:15:07;;;;;;;4.75;2.30;;;;;;;11.69;55.90;102392.58;1632893;86;21093;-79
2022/04/17 07:17:54;;;;;;;2.67;2.15;;;;;;;11.82;55.45;102391.85;1653282;85;21064;-79
2022/04/17 07:20:38;;;;;;;2.70;2.10;;;;;;;11.91;55.71;102389.75;1637877;85;21337;-79
2022/04/17 07:23:22;;;;;;;2.87;2.40;;;;;;;12.27;56.20;102392.98;1653081;85;21040;-79
2022/04/17 07:26:07;;;;;;;3.35;1.82;;;;;;;13.03;56.41;102394.53;1641793;85;21045;-79
2022/04/17 07:28:51;;;;;;;2.67;2.15;;;;;;;13.98;56.04;102389.38;1678991;84;21084;-79
2022/04/17 07:31:36;;;;;;;3.55;2.47;;;;;;;14.65;55.04;102391.77;1655239;85;21506;-79
2022/04/17 07:34:21;;;;;;;3.27;2.95;;;;;;;14.87;54.40;102380.37;1653360;85;21540;-79
2022/04/17 07:37:06;;;;;;;3.65;2.90;;;;;;;14.88;54.15;102379.50;1632504;87;21012;-79
2022/04/17 07:39:50;;;;;;;4.10;3.80;;;;;;;14.68;53.74;102374.38;1653479;84;21128;-79
2022/04/17 07:42:35;;;;;;;3.77;2.30;;;;;;;14.36;53.93;102368.01;1673813;85;20967;-79
2022/04/17 07:45:20;;;;;;;2.70;2.15;;;;;;;14.25;54.01;102375.84;1661461;84;21767;-79
2022/04/17 07:48:05;;;;;;;5.35;3.65;;;;;;;14.29;54.12;102374.54;1688297;82;21056;-79
2022/04/17 07:50:52;;;;;;;3.27;2.77;;;;;;;14.47;54.03;102366.27;1686736;84;21501;-79
2022/04/17 07:53:37;;;;;;;;;;;;;;;14.64;53.92;102358.34;1712346;82;21057;-79
2022/04/17 07:56:21;;;;;;;2.42;2.17;;;;;;;14.69;53.01;102364.84;1686589;85;20142;-79
2022/04/17 07:59:06;;;;;;;2.47;1.90;;;;;;;14.54;53.41;102355.39;1689807;82;21088;-79
2022/04/17 08:01:51;;;;;;;3.02;2.00;;;;;;;14.52;53.14;102358.00;1690279;82;21053;-79
2022/04/17 08:04:35;;;;;;;2.80;1.72;;;;;;;14.56;53.01;102351.87;1698358;82;21066;-79
2022/04/17 08:07:20;;;;;;;1.70;1.60;;;;;;;14.50;52.87;102351.07;1727325;82;21276;-79
2022/04/17 08:10:06;;;;;;;2.62;1.70;;;;;;;14.44;52.93;102343.28;1686911;83;21108;-79
2022/04/17 08:12:51;;;;;;;2.22;2.02;;;;;;;14.38;52.79;102348.05;1687109;84;21103;-79
2022/04/17 08:15:35;;;;;;;2.95;1.77;;;;;;;14.12;52.30;102343.36;1672552;83;21041;-79
2022/04/17 08:18:20;;;;;;;2.22;2.00;;;;;;;13.85;52.22;102336.52;1701168;82;21096;-79
2022/04/17 08:21:06;;;;;;;2.20;1.70;;;;;;;13.85;52.07;102339.13;1675246;83;21077;-79
2022/04/17 08:23:51;;;;;;;1.70;1.45;;;;;;;13.95;51.90;102341.27;1677467;82;21460;-79
2022/04/17 08:26:36;;;;;;;3.27;1.60;;;;;;;14.77;51.67;102336.58;1687680;83;21439;-79
2022/04/17 08:29:20;;;;;;;2.17;1.72;;;;;;;15.62;51.12;102330.27;1674531;85;21074;-79
2022/04/17 08:32:05;;;;;;;2.67;1.40;;;;;;;16.21;50.48;102330.48;1687629;82;20970;-79
2022/04/17 08:34:50;;;;;;;1.85;1.60;;;;;;;16.48;50.13;102335.80;1702333;82;21013;-79
2022/04/17 08:37:35;;;;;;;2.27;1.50;;;;;;;16.17;49.77;102334.45;1681575;83;21049;-79
2022/04/17 08:40:20;;;;;;;3.25;1.50;;;;;;;15.76;49.43;102333.17;1657931;85;21120;-79
2022/04/17 08:43:08;;;;;;;1.70;1.60;;;;;;;15.40;49.91;102330.46;1677383;82;21033;-79
2022/04/17 08:45:54;;;;;;;1.70;1.45;;;;;;;15.02;49.86;102328.61;1684029;82;21528;-79
2022/04/17 08:48:39;;;;;;;2.10;1.45;;;;;;;14.82;50.00;102332.64;1685752;82;21073;-79
2022/04/17 08:51:25;;;;;;;2.52;1.50;;;;;;;14.78;49.88;102324.42;1676072;82;21054;-79
2022/04/17 08:54:12;;;;;;;2.07;1.43;;;;;;;14.74;49.85;102327.92;1675760;84;21068;-79
2022/04/17 08:56:56;;;;;;;2.65;1.60;;;;;;;14.66;49.76;102331.00;1679316;82;21217;-79
2022/04/17 08:59:41;;;;;;;2.08;1.40;;;;;;;14.53;49.56;102335.00;1687991;83;21009;-79
2022/04/17 09:02:26;;;;;;;1.70;1.47;;;;;;;14.32;49.44;102331.16;1703651;83;21109;-79
2022/04/17 09:05:13;;;;;;;2.22;2.00;;;;;;;14.20;49.38;102331.20;1703166;83;21446;-79
2022/04/17 09:08:11;;;;;;;5.12;1.90;;;;;;;14.10;49.16;102329.49;1693182;83;21032;-79
2022/04/17 09:10:59;;;;;;;2.58;1.77;;;;;;;14.03;49.06;102329.98;1673739;84;20985;-80
2022/04/17 09:13:44;;;;;;;3.58;1.95;;;;;;;13.81;48.68;102327.86;1674529;84;21029;-79
2022/04/17 09:16:35;;;;;;;2.67;1.90;;;;;;;13.54;48.57;102322.27;1661178;84;21036;-79
2022/04/17 09:19:20;;;;;;;2.47;2.02;;;;;;;13.32;48.29;102318.41;1680949;84;21454;-79
2022/04/17 09:22:06;;;;;;;3.08;2.08;;;;;;;13.03;48.07;102311.86;1686434;84;21064;-79
2022/04/17 09:24:50;;;;;;;2.60;2.00;;;;;;;12.86;48.14;102313.16;1693537;82;21040;-79
2022/04/17 09:27:35;;;;;;;2.77;2.00;;;;;;;12.75;47.88;102306.65;1686505;83;21046;-79
2022/04/17 09:30:28;;;;;;;2.27;1.90;;;;;;;12.61;47.71;102303.15;1686563;84;21750;-79
2022/04/17 09:33:14;;;;;;;3.00;2.00;;;;;;;12.46;47.46;102301.84;1690421;83;21461;-79
2022/04/17 09:35:59;;;;;;;1.97;1.40;;;;;;;12.28;47.42;102305.23;1715186;82;21017;-79
2022/04/17 09:38:47;;;;;;;2.87;1.42;;;;;;;12.14;47.15;102298.68;1717393;82;21276;-80
2022/04/17 09:41:31;;;;;;;1.72;1.40;;;;;;;11.96;47.06;102296.00;1704429;82;21036;-79
2022/04/17 09:44:46;;;;;;;1.55;1.37;;;;;;;11.84;46.87;102290.77;1686422;84;21325;-78
2022/04/17 09:47:31;;;;;;;2.03;1.43;;;;;;;11.77;46.96;102286.41;1711056;83;21009;-78
2022/04/17 09:50:17;;;;;;;1.80;1.40;;;;;;;11.69;46.72;102282.45;1717664;82;21307;-78
2022/04/17 09:53:06;;;;;;;2.25;1.60;;;;;;;11.65;46.72;102265.58;1688012;83;21062;-78
2022/04/17 09:55:48;;;;;;;;;;;;;;;11.69;46.65;102269.92;1694571;83;21020;-78
2022/04/17 09:58:45;;;;;;;2.52;1.82;;;;;;;11.73;46.34;102261.30;1704650;83;20196;-78
2022/04/17 10:01:30;;;;;;;2.62;2.10;;;;;;;11.75;46.50;102257.00;1719937;83;21769;-78
2022/04/17 10:04:21;;;;;;;2.42;2.10;;;;;;;11.78;46.45;102259.20;1731159;82;21080;-78
2022/04/17 10:07:07;;;;;;;2.02;1.82;;;;;;;11.81;46.38;102265.70;1685305;84;21076;-78
2022/04/17 10:09:52;;;;;;;2.05;1.77;;;;;;;11.80;46.21;102255.33;1686585;84;21024;-78
2022/04/17 10:12:38;;;;;;;4.83;3.25;;;;;;;11.76;46.06;102250.95;1686628;84;21020;-78
2022/04/17 10:15:23;;;;;;;2.50;2.10;;;;;;;11.72;45.97;102245.31;1695973;83;21049;-78
2022/04/17 10:18:08;;;;;;;2.70;2.10;;;;;;;11.73;46.10;102247.05;1696394;83;21095;-78
2022/04/17 10:20:53;;;;;;;3.00;1.87;;;;;;;11.73;46.07;102244.46;1693105;83;20996;-78
2022/04/17 10:23:44;;;;;;;3.12;2.10;;;;;;;11.73;46.05;102241.88;1665766;85;20988;-79
2022/04/17 10:26:32;;;;;;;3.20;2.42;;;;;;;11.72;45.93;102234.95;1695047;83;21069;-78
2022/04/17 10:29:41;;;;;;;2.22;2.00;;;;;;;11.67;45.99;102240.11;1686533;83;21076;-78
2022/04/17 10:33:15;;;;;;;3.20;1.82;;;;;;;11.70;45.79;102230.19;1623209;85;21706;-78
2022/04/17 10:36:39;;;;;;;2.40;2.20;;;;;;;11.63;45.78;102224.11;1673260;84;21070;-79
2022/04/17 10:39:36;;;;;;;3.17;2.37;;;;;;;11.60;45.64;102215.02;1664000;85;21073;-78
2022/04/17 10:42:22;;;;;;;2.47;2.27;;;;;;;11.59;45.85;102207.68;1680217;84;21109;-78
2022/04/17 10:45:09;;;;;;;;;;;;;;;11.65;45.69;102197.78;1633010;86;21065;-78
2022/04/17 10:48:11;;;;;;;2.95;2.15;;;;;;;11.65;45.43;102202.09;1664452;84;20206;-78
2022/04/17 10:50:56;;;;;;;3.52;2.52;;;;;;;11.65;45.66;102184.82;1630097;87;21581;-79
2022/04/17 10:54:10;;;;;;;3.45;2.25;;;;;;;11.71;45.65;102187.88;1652003;86;21080;-79
2022/04/17 10:56:59;;;;;;;3.52;2.30;;;;;;;11.73;45.54;102191.34;1643287;86;21497;-79
2022/04/17 10:59:45;;;;;;;3.37;2.55;;;;;;;11.73;45.51;102186.16;1652401;86;20988;-78
2022/04/17 11:02:29;;;;;;;3.25;2.20;;;;;;;11.72;45.56;102188.31;1631203;87;21088;-78
2022/04/17 11:05:20;;;;;;;2.77;2.45;;;;;;;11.74;45.47;102182.70;1661372;84;21032;-78
2022/04/17 11:08:19;;;;;;;2.30;2.02;;;;;;;11.80;45.48;102182.33;1657931;86;21120;-77
2022/04/17 11:11:04;;;;;;;3.22;2.05;;;;;;;11.86;45.45;102181.06;1668386;84;21088;-78
2022/04/17 11:14:13;;;;;;;2.75;2.10;;;;;;;11.88;45.45;102172.86;1657641;86;21493;-78
2022/04/17 11:17:01;;;;;;;2.95;1.90;;;;;;;11.96;45.49;102160.36;1678439;85;21081;-78
2022/04/17 11:19:47;;;;;;;3.62;2.27;;;;;;;12.04;45.41;102165.97;1670573;83;20984;-78
2022/04/17 11:22:35;;;;;;;2.58;2.05;;;;;;;12.09;45.35;102159.50;1604501;86;21471;-78
2022/04/17 11:25:20;;;;;;;4.62;2.25;;;;;;;12.02;45.27;102151.27;1656737;85;21044;-78
2022/04/17 11:28:04;;;;;;;3.50;1.90;;;;;;;11.98;45.28;102141.33;1666624;84;20980;-79
2022/04/17 11:30:58;;;;;;;2.25;1.52;;;;;;;12.03;45.17;102137.45;1638719;86;20984;-78
2022/04/17 11:33:40;;;;;;;2.60;1.80;;;;;;;12.07;45.10;102129.68;1653180;85;20996;-78
2022/04/17 11:36:25;;;;;;;2.22;1.80;;;;;;;12.12;44.99;102129.69;1682342;84;21080;-77
2022/04/17 11:39:10;;;;;;;2.52;1.92;;;;;;;12.15;45.16;102127.10;1681452;84;21016;-77
2022/04/17 11:41:55;;;;;;;2.72;1.85;;;;;;;12.21;45.00;102116.31;1660450;84;21103;-78
2022/04/17 11:44:41;;;;;;;2.35;1.90;;;;;;;12.20;45.05;102118.47;1654028;86;21051;-78
2022/04/17 11:47:26;;;;;;;2.33;1.57;;;;;;;12.23;45.08;102107.23;1678163;83;21036;-78
2022/04/17 11:50:21;;;;;;;1.80;1.65;;;;;;;12.19;45.08;102090.80;1650610;83;119014;-78
2022/04/17 11:53:16;;;;;;;1.62;1.50;;;;;;;12.31;45.04;102109.41;1661726;84;21052;-78
2022/04/17 11:56:01;;;;;;;2.25;1.52;;;;;;;12.33;44.97;102094.70;1676647;85;20958;-77
2022/04/17 11:58:47;;;;;;;1.60;1.45;;;;;;;12.40;45.00;102101.63;1672862;85;21585;-79
2022/04/17 12:01:32;;;;;;;1.85;1.75;;;;;;;12.54;45.06;102094.68;1681775;83;21088;-78
2022/04/17 12:04:21;;;;;;;2.02;1.47;;;;;;;12.56;44.93;102091.66;1707944;83;21057;-78
2022/04/17 12:07:05;;;;;;;2.00;1.27;;;;;;;12.54;44.86;102094.68;1707127;83;21001;-78
2022/04/17 12:09:50;;;;;;;1.77;1.20;;;;;;;12.54;44.87;102085.59;1661000;85;21049;-78
2022/04/17 12:12:41;;;;;;;3.58;1.30;;;;;;;12.64;44.86;102086.89;1657567;84;21088;-78
2022/04/17 12:15:25;;;;;;;2.52;1.32;;;;;;;12.67;44.72;102080.41;1646835;86;21165;-78
2022/04/17 12:18:10;;;;;;;2.12;1.37;;;;;;;12.72;44.71;102082.56;1632452;87;21065;-78
2022/04/17 12:20:57;;;;;;;1.55;1.30;;;;;;;12.74;44.84;102073.04;1620565;86;21109;-78
2022/04/17 12:23:43;;;;;;;1.10;0.95;;;;;;;12.76;44.72;102066.12;1621963;86;21118;-78
2022/04/17 12:26:28;;;;;;;1.97;1.10;;;;;;;12.74;44.56;102065.25;1669868;84;21064;-78
2022/04/17 12:29:14;;;;;;;1.07;0.98;;;;;;;12.76;44.63;102057.03;1661555;85;21512;-78
2022/04/17 12:34:45;;;;;;;1.72;1.15;;;;;;;13.04;44.22;102054.77;1821395;78;24220;-78
2022/04/17 12:37:32;;;;;;;4.00;2.50;;;;;;;13.04;44.29;102058.66;1774728;79;21086;-78
2022/04/17 12:40:22;;;;;;;5.60;2.95;;;;;;;13.05;44.27;102057.80;1782755;80;20989;-78
2022/04/17 12:43:20;;;;;;;3.33;1.92;;;;;;;13.07;44.37;102054.77;1782832;80;20941;-78
2022/04/17 12:46:06;;;;;;;3.33;1.90;;;;;;;13.10;44.33;102053.45;1777980;79;21400;-78
2022/04/17 12:49:15;;;;;;;2.10;1.50;;;;;;;13.14;44.39;102031.80;1782504;80;21227;-78
2022/04/17 12:51:59;;;;;;;1.72;1.50;;;;;;;13.22;44.14;102026.61;1781999;79;21032;-78
2022/04/17 12:54:44;;;;;;;4.90;2.77;;;;;;;13.20;44.25;102024.02;1745381;79;20962;-78
2022/04/17 12:57:28;;;;;;;2.77;1.90;;;;;;;13.21;44.06;102010.16;1736205;81;21016;-79
2022/04/17 13:00:17;;;;;;;4.15;2.72;;;;;;;13.22;44.07;102004.09;1736195;82;20977;-79
2022/04/17 13:03:13;;;;;;;2.02;1.40;;;;;;;13.31;44.15;101993.23;1740629;81;22152;-79
2022/04/17 13:06:03;;;;;;;4.92;3.42;;;;;;;13.38;44.20;101987.99;1768402;80;21569;-79
2022/04/17 13:09:12;;;;;;;2.20;1.55;;;;;;;13.46;44.14;101983.62;1759631;79;20977;-79
2022/04/17 13:11:57;;;;;;;1.57;1.25;;;;;;;13.51;44.03;101980.98;1730394;82;21058;-80
2022/04/17 13:15:06;;;;;;;1.65;1.55;;;;;;;13.58;44.09;101980.91;1766986;81;21455;-79
2022/04/17 13:17:53;;;;;;;2.08;1.42;;;;;;;13.70;43.94;101978.66;1726473;82;20973;-79
2022/04/17 13:20:37;;;;;;;1.12;1.00;;;;;;;13.76;44.04;101972.56;1740779;79;21100;-79